createdAt,value
2023-08-26T00:02:14.002Z,18.96
2023-08-26T00:04:40.744Z,19.03
2023-08-26T00:07:07.728Z,19.06
2023-08-26T00:09:34.513Z,19.09
2023-08-26T00:12:01.133Z,19.12
2023-08-26T00:14:27.724Z,19.15
2023-08-26T00:16:54.295Z,19.13
2023-08-26T00:19:21.681Z,19.08
2023-08-26T00:21:49.104Z,19.01
2023-08-26T00:24:15.886Z,18.98
2023-08-26T00:26:42.480Z,18.94
2023-08-26T00:29:09.104Z,18.94
2023-08-26T00:31:35.974Z,18.87
2023-08-26T00:34:04.780Z,18.78
2023-08-26T00:36:32.090Z,18.73
2023-08-26T00:38:59.314Z,18.76
2023-08-26T00:41:26.351Z,18.76
2023-08-26T00:43:52.991Z,18.75
2023-08-26T00:46:19.877Z,18.69
2023-08-26T00:48:46.559Z,18.64
2023-08-26T00:51:13.183Z,18.55
2023-08-26T00:53:39.937Z,18.57
2023-08-26T00:56:06.732Z,18.50
2023-08-26T00:58:33.404Z,18.50
2023-08-26T01:01:00.157Z,18.43
2023-08-26T01:03:26.934Z,18.41
2023-08-26T01:05:53.664Z,18.36
2023-08-26T01:08:20.926Z,18.33
2023-08-26T01:11:25.081Z,18.26
2023-08-26T01:13:59.420Z,18.24
2023-08-26T01:16:27.203Z,18.21
2023-08-26T01:18:53.943Z,18.20
2023-08-26T01:21:25.367Z,18.20
2023-08-26T01:23:53.538Z,18.16
2023-08-26T01:26:20.150Z,18.17
2023-08-26T01:28:47.151Z,18.16
2023-08-26T01:31:14.631Z,18.20
2023-08-26T01:34:04.706Z,18.18
2023-08-26T01:36:34.345Z,18.21
2023-08-26T01:39:02.308Z,18.23
2023-08-26T01:41:30.915Z,18.23
2023-08-26T01:43:59.094Z,18.23
2023-08-26T01:46:38.390Z,18.21
2023-08-26T01:49:06.056Z,18.20
2023-08-26T01:51:33.366Z,18.16
2023-08-26T01:54:00.155Z,18.16
2023-08-26T01:56:26.766Z,18.16
2023-08-26T01:58:54.597Z,18.23
2023-08-26T02:01:21.236Z,18.23
2023-08-26T02:03:48.054Z,18.24
2023-08-26T02:06:14.739Z,18.26
2023-08-26T02:08:41.654Z,18.26
2023-08-26T02:11:08.347Z,18.20
2023-08-26T02:13:34.971Z,18.20
2023-08-26T02:16:05.279Z,18.21
2023-08-26T02:18:32.146Z,18.20
2023-08-26T02:20:58.686Z,18.20
2023-08-26T02:23:26.979Z,18.18
2023-08-26T02:25:53.684Z,18.18
2023-08-26T02:28:20.432Z,18.14
2023-08-26T02:30:47.248Z,18.11
2023-08-26T02:33:13.910Z,18.10
2023-08-26T02:35:46.691Z,18.10
2023-08-26T02:38:14.100Z,18.07
2023-08-26T02:40:40.728Z,18.06
2023-08-26T02:43:07.333Z,18.07
2023-08-26T02:45:34.064Z,18.04
2023-08-26T02:48:00.730Z,18.03
2023-08-26T02:50:27.376Z,18.04
2023-08-26T02:52:54.020Z,18.04
2023-08-26T02:55:20.580Z,18.03
2023-08-26T02:57:47.170Z,18.03
2023-08-26T03:00:14.917Z,18.01
2023-08-26T03:02:41.753Z,18.04
2023-08-26T03:05:08.809Z,18.00
2023-08-26T03:07:35.456Z,18.00
2023-08-26T03:10:02.082Z,18.01
2023-08-26T03:12:28.694Z,17.96
2023-08-26T03:14:55.345Z,17.99
2023-08-26T03:17:22.023Z,17.99
2023-08-26T03:19:48.685Z,17.97
2023-08-26T03:22:15.367Z,18.01
2023-08-26T03:24:42.006Z,18.01
2023-08-26T03:27:08.633Z,18.03
2023-08-26T03:29:35.576Z,18.03
2023-08-26T03:32:02.322Z,18.03
2023-08-26T03:34:29.004Z,18.01
2023-08-26T03:36:55.678Z,18.06
2023-08-26T03:39:22.326Z,18.11
2023-08-26T03:41:48.904Z,18.09
2023-08-26T03:44:15.525Z,18.07
2023-08-26T03:46:42.067Z,18.07
2023-08-26T03:49:08.706Z,18.06
2023-08-26T03:51:35.334Z,18.07
2023-08-26T03:54:01.928Z,18.06
2023-08-26T03:56:29.362Z,18.06
2023-08-26T03:58:58.318Z,18.04
2023-08-26T04:01:25.233Z,18.09
2023-08-26T04:03:53.331Z,18.14
2023-08-26T04:06:20.434Z,18.21
2023-08-26T04:08:47.169Z,18.24
2023-08-26T04:11:16.135Z,18.23
2023-08-26T04:13:42.883Z,18.21
2023-08-26T04:16:09.743Z,18.20
2023-08-26T04:18:36.409Z,18.20
2023-08-26T04:21:03.088Z,18.24
2023-08-26T04:23:31.348Z,18.27
2023-08-26T04:26:09.660Z,18.30
2023-08-26T04:28:36.328Z,18.31
2023-08-26T04:31:03.094Z,18.34
2023-08-26T04:33:30.494Z,18.40
2023-08-26T04:35:57.195Z,18.43
2023-08-26T04:38:23.716Z,18.44
2023-08-26T04:40:50.355Z,18.44
2023-08-26T04:43:16.973Z,18.43
2023-08-26T04:45:44.939Z,18.44
2023-08-26T04:48:11.867Z,18.45
2023-08-26T04:50:38.662Z,18.50
2023-08-26T04:53:05.422Z,18.52
2023-08-26T04:55:34.213Z,18.57
2023-08-26T04:58:01.141Z,18.60
2023-08-26T05:00:28.049Z,18.65
2023-08-26T05:02:55.801Z,18.69
2023-08-26T05:05:22.507Z,18.75
2023-08-26T05:07:49.189Z,18.78
2023-08-26T05:10:15.873Z,18.76
2023-08-26T05:12:42.481Z,18.78
2023-08-26T05:15:09.502Z,18.81
2023-08-26T05:17:36.221Z,18.78
2023-08-26T05:20:03.739Z,18.79
2023-08-26T05:22:30.394Z,18.79
2023-08-26T05:24:57.010Z,18.78
2023-08-26T05:27:24.058Z,18.82
2023-08-26T05:29:51.156Z,18.84
2023-08-26T05:32:18.997Z,18.87
2023-08-26T05:34:45.642Z,18.91
2023-08-26T05:37:12.303Z,18.92
2023-08-26T05:39:38.902Z,18.94
2023-08-26T05:42:05.916Z,18.98
2023-08-26T05:44:32.606Z,19.03
2023-08-26T05:46:59.296Z,19.08
2023-08-26T05:49:25.987Z,19.09
2023-08-26T05:51:52.573Z,19.15
2023-08-26T05:54:19.298Z,19.15
2023-08-26T05:56:46.005Z,19.20
2023-08-26T05:59:12.635Z,19.15
2023-08-26T06:01:39.355Z,19.19
2023-08-26T06:04:06.881Z,19.23
2023-08-26T06:06:34.252Z,19.30
2023-08-26T06:09:00.850Z,19.34
2023-08-26T06:11:27.538Z,19.43
2023-08-26T06:13:54.183Z,19.49
2023-08-26T06:16:21.595Z,19.53
2023-08-26T06:18:49.013Z,19.63
2023-08-26T06:21:16.245Z,19.74
2023-08-26T06:23:43.217Z,19.78
2023-08-26T06:26:10.020Z,19.80
2023-08-26T06:28:37.002Z,19.85
2023-08-26T06:31:03.646Z,19.84
2023-08-26T06:33:30.331Z,19.81
2023-08-26T06:35:56.916Z,19.80
2023-08-26T06:38:23.716Z,19.84
2023-08-26T06:40:57.631Z,19.77
2023-08-26T06:43:25.008Z,19.73
2023-08-26T06:45:52.120Z,19.67
2023-08-26T06:48:18.841Z,19.64
2023-08-26T06:50:51.954Z,19.69
2023-08-26T06:53:22.989Z,19.73
2023-08-26T06:55:50.901Z,19.78
2023-08-26T06:58:17.897Z,19.85
2023-08-26T07:00:45.029Z,19.92
2023-08-26T07:03:12.171Z,19.91
2023-08-26T07:05:42.791Z,19.88
2023-08-26T07:08:09.772Z,19.85
2023-08-26T07:10:36.474Z,19.85
2023-08-26T07:13:03.153Z,19.80
2023-08-26T07:15:30.723Z,19.78
2023-08-26T07:17:57.688Z,19.81
2023-08-26T07:20:25.749Z,19.81
2023-08-26T07:22:52.477Z,19.84
2023-08-26T07:25:19.244Z,19.85
2023-08-26T07:27:46.700Z,19.75
2023-08-26T07:30:14.879Z,19.77
2023-08-26T07:32:42.711Z,19.80
2023-08-26T07:35:10.841Z,19.69
2023-08-26T07:37:37.984Z,19.75
2023-08-26T07:40:08.749Z,19.88
2023-08-26T07:42:36.650Z,20.11
2023-08-26T07:45:04.589Z,20.29
2023-08-26T07:50:00.857Z,20.29
2023-08-26T07:52:29.718Z,20.50
2023-08-26T07:54:56.916Z,20.49
2023-08-26T07:57:24.343Z,20.68
2023-08-26T07:59:51.011Z,20.83
2023-08-26T08:02:19.089Z,20.99
2023-08-26T08:04:45.965Z,21.03
2023-08-26T08:07:12.754Z,21.26
2023-08-26T08:09:40.627Z,21.06
2023-08-26T08:12:09.448Z,20.96
2023-08-26T08:14:36.354Z,21.10
2023-08-26T08:17:04.282Z,21.82
2023-08-26T08:19:30.941Z,21.69
2023-08-26T08:21:57.587Z,21.59
2023-08-26T08:24:24.466Z,21.71
2023-08-26T08:26:51.239Z,21.83
2023-08-26T08:29:17.936Z,22.50
2023-08-26T08:31:44.782Z,22.83
2023-08-26T08:34:11.519Z,23.32
2023-08-26T08:36:38.118Z,23.69
2023-08-26T08:39:04.863Z,23.90
2023-08-26T08:41:35.438Z,23.52
2023-08-26T08:44:09.633Z,23.12
2023-08-26T08:46:37.296Z,23.22
2023-08-26T08:49:04.679Z,22.95
2023-08-26T08:51:31.845Z,22.58
2023-08-26T08:53:59.017Z,22.65
2023-08-26T08:56:26.616Z,23.12
2023-08-26T08:58:54.575Z,24.27
2023-08-26T09:01:24.592Z,25.02
2023-08-26T09:03:51.193Z,25.57
2023-08-26T09:06:21.060Z,25.30
2023-08-26T09:08:48.918Z,23.90
2023-08-26T09:11:15.762Z,23.57
2023-08-26T09:13:44.170Z,23.25
2023-08-26T09:16:11.334Z,23.29
2023-08-26T09:18:42.590Z,23.74
2023-08-26T09:21:10.952Z,24.07
2023-08-26T09:23:44.835Z,23.92
2023-08-26T09:26:12.210Z,23.66
2023-08-26T09:28:46.794Z,22.74
2023-08-26T09:31:14.277Z,22.53
2023-08-26T09:33:42.313Z,22.57
2023-08-26T09:38:48.330Z,24.08
2023-08-26T09:41:20.971Z,24.31
2023-08-26T09:43:48.564Z,25.74
2023-08-26T09:46:22.344Z,25.70
2023-08-26T09:48:50.138Z,26.25
2023-08-26T09:51:30.944Z,26.91
2023-08-26T09:53:58.696Z,27.27
2023-08-26T09:56:26.731Z,25.84
2023-08-26T09:58:54.627Z,25.33
2023-08-26T10:01:22.645Z,25.19
2023-08-26T10:04:05.679Z,26.09
2023-08-26T10:06:37.298Z,26.79
2023-08-26T10:09:38.811Z,27.52
2023-08-26T10:12:10.366Z,28.40
2023-08-26T10:14:40.037Z,28.23
2023-08-26T10:17:09.094Z,26.63
2023-08-26T10:19:36.656Z,27.08
2023-08-26T10:22:05.692Z,27.76
2023-08-26T10:24:32.349Z,27.01
2023-08-26T10:26:59.005Z,28.96
2023-08-26T10:29:26.507Z,28.39
2023-08-26T10:31:53.200Z,28.45
2023-08-26T10:34:19.876Z,27.67
2023-08-26T10:36:48.635Z,27.96
2023-08-26T10:39:17.437Z,27.17
2023-08-26T10:42:11.980Z,28.16
2023-08-26T10:44:43.156Z,26.87
2023-08-26T10:47:10.931Z,26.55
2023-08-26T10:49:38.092Z,25.68
2023-08-26T10:52:09.972Z,25.71
2023-08-26T10:54:37.236Z,25.77
2023-08-26T10:57:08.759Z,25.36
2023-08-26T10:59:37.003Z,25.15
2023-08-26T11:02:08.502Z,24.82
2023-08-26T11:04:45.561Z,25.67
2023-08-26T11:07:19.530Z,26.05
2023-08-26T11:09:46.679Z,25.88
2023-08-26T11:12:29.041Z,25.74
2023-08-26T11:15:06.837Z,25.41
2023-08-26T11:17:42.861Z,25.44
2023-08-26T11:20:18.895Z,26.39
2023-08-26T11:22:46.400Z,27.17
2023-08-26T11:25:17.030Z,27.37
2023-08-26T11:27:43.953Z,27.08
2023-08-26T11:30:12.010Z,26.63
2023-08-26T11:32:40.080Z,26.98
2023-08-26T11:35:08.967Z,26.66
2023-08-26T11:37:47.408Z,27.17
2023-08-26T11:40:15.197Z,27.37
2023-08-26T11:42:42.173Z,26.72
2023-08-26T11:45:14.841Z,26.15
2023-08-26T11:47:41.616Z,25.74
2023-08-26T11:50:12.416Z,25.63
2023-08-26T11:52:39.839Z,25.63
2023-08-26T11:55:08.588Z,24.83
2023-08-26T11:57:37.448Z,25.43
2023-08-26T12:00:12.543Z,25.09
2023-08-26T12:02:40.120Z,25.99
2023-08-26T12:05:07.118Z,27.65
2023-08-26T12:07:59.056Z,28.17
2023-08-26T12:10:27.005Z,28.61
2023-08-26T12:13:03.595Z,28.82
2023-08-26T12:15:30.366Z,29.01
2023-08-26T12:17:57.416Z,27.25
2023-08-26T12:20:32.627Z,27.63
2023-08-26T12:23:01.286Z,27.48
2023-08-26T12:25:32.005Z,28.53
2023-08-26T12:28:15.285Z,28.44
2023-08-26T12:30:44.502Z,28.91
2023-08-26T12:33:23.464Z,28.40
2023-08-26T12:35:55.851Z,29.09
2023-08-26T12:38:24.074Z,29.36
2023-08-26T12:40:51.345Z,28.54
2023-08-26T12:43:21.939Z,29.34
2023-08-26T12:45:50.435Z,29.09
2023-08-26T12:48:31.114Z,28.84
2023-08-26T12:51:04.844Z,28.28
2023-08-26T12:53:31.385Z,28.91
2023-08-26T12:55:59.275Z,28.28
2023-08-26T12:58:26.757Z,27.52
2023-08-26T13:00:53.906Z,27.73
2023-08-26T13:03:20.754Z,28.96
2023-08-26T13:05:49.783Z,29.02
2023-08-26T13:08:16.558Z,29.25
2023-08-26T13:10:43.209Z,28.75
2023-08-26T13:13:09.878Z,28.04
2023-08-26T13:15:42.428Z,28.71
2023-08-26T13:18:10.343Z,29.46
2023-08-26T13:20:39.634Z,29.27
2023-08-26T13:23:06.422Z,28.30
2023-08-26T13:25:33.049Z,27.41
2023-08-26T13:27:59.910Z,26.82
2023-08-26T13:30:26.652Z,26.33
2023-08-26T13:32:53.550Z,25.38
2023-08-26T13:35:20.187Z,26.40
2023-08-26T13:37:46.874Z,25.98
2023-08-26T13:40:14.293Z,26.04
2023-08-26T13:42:42.029Z,26.42
2023-08-26T13:45:09.303Z,26.46
2023-08-26T13:47:36.098Z,25.38
2023-08-26T13:50:02.819Z,25.63
2023-08-26T13:52:29.811Z,25.31
2023-08-26T13:54:56.414Z,25.13
2023-08-26T13:57:23.116Z,24.64
2023-08-26T13:59:49.726Z,24.76
2023-08-26T14:02:17.030Z,25.16
2023-08-26T14:04:44.520Z,25.46
2023-08-26T14:07:11.168Z,25.48
2023-08-26T14:09:37.890Z,24.62
2023-08-26T14:12:05.505Z,24.72
2023-08-26T14:14:32.180Z,24.76
2023-08-26T14:16:59.081Z,24.83
2023-08-26T14:19:25.834Z,24.04
2023-08-26T14:21:52.499Z,24.21
2023-08-26T14:24:19.121Z,24.08
2023-08-26T14:26:46.730Z,24.35
2023-08-26T14:29:13.546Z,24.11
2023-08-26T14:31:40.319Z,23.83
2023-08-26T14:34:06.869Z,23.71
2023-08-26T14:36:33.521Z,23.42
2023-08-26T14:39:02.472Z,23.23
2023-08-26T14:41:29.309Z,23.65
2023-08-26T14:43:56.027Z,23.60
2023-08-26T14:46:22.773Z,23.66
2023-08-26T14:48:49.409Z,23.60
2023-08-26T14:51:16.052Z,23.62
2023-08-26T14:53:42.748Z,23.62
2023-08-26T14:56:10.213Z,23.63
2023-08-26T14:58:37.152Z,23.28
2023-08-26T15:01:03.790Z,23.35
2023-08-26T15:03:30.806Z,23.33
2023-08-26T15:05:59.061Z,22.97
2023-08-26T15:08:26.076Z,22.71
2023-08-26T15:10:53.067Z,22.54
2023-08-26T15:13:23.329Z,22.35
2023-08-26T15:15:53.298Z,22.43
2023-08-26T15:18:20.614Z,22.50
2023-08-26T15:20:49.669Z,22.46
2023-08-26T15:23:17.323Z,22.36
2023-08-26T15:25:47.842Z,22.35
2023-08-26T15:28:15.756Z,22.40
2023-08-26T15:30:54.259Z,22.36
2023-08-26T15:33:21.125Z,22.10
2023-08-26T15:35:54.275Z,22.20
2023-08-26T15:38:21.474Z,21.89
2023-08-26T15:40:55.492Z,22.05
2023-08-26T15:43:22.224Z,22.13
2023-08-26T15:45:48.943Z,22.05
2023-08-26T15:48:15.922Z,22.00
2023-08-26T15:50:43.135Z,22.19
2023-08-26T15:53:14.236Z,22.19
2023-08-26T15:55:42.126Z,22.05
2023-08-26T15:58:08.753Z,21.90
2023-08-26T16:00:35.578Z,21.95
2023-08-26T16:03:02.406Z,21.99
2023-08-26T16:05:29.152Z,21.79
2023-08-26T16:07:55.985Z,21.75
2023-08-26T16:10:23.396Z,21.82
2023-08-26T16:12:51.377Z,21.69
2023-08-26T16:15:18.608Z,21.78
2023-08-26T16:17:45.441Z,21.61
2023-08-26T16:20:12.273Z,21.44
2023-08-26T16:22:39.029Z,21.49
2023-08-26T16:25:06.189Z,21.48
2023-08-26T16:27:34.937Z,21.41
2023-08-26T16:30:05.985Z,21.31
2023-08-26T16:32:33.802Z,21.20
2023-08-26T16:35:01.375Z,21.10
2023-08-26T16:37:30.222Z,21.17
2023-08-26T16:39:58.137Z,21.12
2023-08-26T16:42:25.228Z,21.08
2023-08-26T16:44:53.079Z,21.00
2023-08-26T16:47:21.376Z,20.90
2023-08-26T16:49:49.784Z,20.80
2023-08-26T16:52:16.453Z,20.83
2023-08-26T16:54:43.274Z,20.79
2023-08-26T16:57:09.945Z,20.70
2023-08-26T16:59:36.855Z,20.60
2023-08-26T17:02:03.702Z,20.49
2023-08-26T17:04:30.398Z,20.40
2023-08-26T17:06:57.118Z,20.35
2023-08-26T17:09:27.695Z,20.38
2023-08-26T17:11:56.051Z,20.32
2023-08-26T17:14:24.143Z,20.31
2023-08-26T17:16:52.125Z,20.31
2023-08-26T17:19:18.841Z,20.24
2023-08-26T17:21:45.482Z,20.11
2023-08-26T17:24:12.543Z,20.05
2023-08-26T17:26:39.219Z,19.92
2023-08-26T17:29:05.835Z,19.91
2023-08-26T17:31:32.566Z,19.88
2023-08-26T17:33:59.139Z,19.85
2023-08-26T17:36:25.823Z,19.74
2023-08-26T17:38:52.469Z,19.60
2023-08-26T17:41:19.074Z,19.41
2023-08-26T17:43:45.734Z,19.24
2023-08-26T17:46:12.805Z,19.15
2023-08-26T17:48:39.492Z,19.16
2023-08-26T17:51:06.095Z,19.09
2023-08-26T17:53:32.916Z,18.96
2023-08-26T17:55:59.668Z,18.87
2023-08-26T17:58:26.508Z,18.76
2023-08-26T18:00:53.197Z,18.79
2023-08-26T18:03:20.043Z,18.76
2023-08-26T18:05:46.664Z,18.64
2023-08-26T18:08:13.459Z,18.51
2023-08-26T18:10:40.260Z,18.41
2023-08-26T18:13:09.749Z,18.26
2023-08-26T18:15:37.526Z,18.16
2023-08-26T18:18:04.393Z,18.10
2023-08-26T18:20:31.144Z,18.04
2023-08-26T18:22:58.007Z,18.03
2023-08-26T18:25:24.909Z,17.96
2023-08-26T18:27:51.598Z,17.92
2023-08-26T18:30:18.965Z,17.76
2023-08-26T18:32:45.807Z,17.65
2023-08-26T18:35:12.671Z,17.46
2023-08-26T18:37:40.570Z,17.34
2023-08-26T18:40:08.917Z,17.21
2023-08-26T18:42:35.705Z,17.08
2023-08-26T18:45:02.666Z,17.00
2023-08-26T18:47:29.341Z,16.87
2023-08-26T18:49:55.946Z,16.79
2023-08-26T18:52:22.656Z,16.71
2023-08-26T18:54:49.273Z,16.63
2023-08-26T18:57:16.879Z,16.59
2023-08-26T18:59:43.615Z,16.56
2023-08-26T19:02:10.291Z,16.56
2023-08-26T19:04:36.897Z,16.52
2023-08-26T19:07:03.820Z,16.49
2023-08-26T19:09:32.394Z,16.40
2023-08-26T19:11:59.141Z,16.34
2023-08-26T19:14:25.741Z,16.29
2023-08-26T19:16:52.374Z,16.26
2023-08-26T19:19:19.103Z,16.16
2023-08-26T19:21:45.778Z,16.11
2023-08-26T19:24:12.391Z,16.04
2023-08-26T19:26:39.102Z,15.95
2023-08-26T19:29:05.999Z,15.88
2023-08-26T19:31:33.462Z,15.78
2023-08-26T19:34:00.117Z,15.72
2023-08-26T19:36:27.057Z,15.68
2023-08-26T19:38:53.657Z,15.58
2023-08-26T19:41:20.381Z,15.54
2023-08-26T19:43:47.373Z,15.44
2023-08-26T19:46:14.160Z,15.40
2023-08-26T19:48:54.561Z,15.34
2023-08-26T19:51:25.700Z,15.29
2023-08-26T19:53:54.285Z,15.24
2023-08-26T19:56:20.940Z,15.22
2023-08-26T19:58:47.574Z,15.19
2023-08-26T20:01:14.186Z,15.13
2023-08-26T20:03:40.982Z,15.09
2023-08-26T20:06:07.713Z,15.04
2023-08-26T20:08:34.257Z,14.99
2023-08-26T20:11:00.850Z,14.95
2023-08-26T20:13:27.519Z,14.89
2023-08-26T20:15:56.785Z,14.82
2023-08-26T20:18:24.698Z,14.73
2023-08-26T20:20:58.817Z,14.65
2023-08-26T20:23:26.905Z,14.51
2023-08-26T20:26:01.024Z,14.45
2023-08-26T20:28:28.374Z,14.34
2023-08-26T20:31:04.448Z,14.25
2023-08-26T20:33:32.741Z,14.20
2023-08-26T20:36:04.238Z,14.11
2023-08-26T20:38:31.986Z,14.06
2023-08-26T20:41:05.124Z,13.97
2023-08-26T20:43:32.415Z,13.93
2023-08-26T20:45:59.934Z,13.86
2023-08-26T20:48:27.580Z,13.82
2023-08-26T20:50:54.754Z,13.77
2023-08-26T20:53:21.578Z,13.72
2023-08-26T20:55:49.722Z,13.65
2023-08-26T20:58:16.840Z,13.63
2023-08-26T21:00:43.473Z,13.56
2023-08-26T21:03:10.921Z,13.52
2023-08-26T21:05:38.519Z,13.45
2023-08-26T21:08:06.867Z,13.41
2023-08-26T21:10:34.089Z,13.36
2023-08-26T21:13:00.944Z,13.29
2023-08-26T21:15:28.473Z,13.24
2023-08-26T21:17:55.260Z,13.21
2023-08-26T21:20:22.497Z,13.19
2023-08-26T21:22:49.405Z,13.15
2023-08-26T21:25:16.030Z,13.10
2023-08-26T21:27:42.613Z,13.07
2023-08-26T21:30:09.778Z,13.04
2023-08-26T21:32:37.944Z,13.00
2023-08-26T21:35:05.457Z,12.94
2023-08-26T21:37:36.387Z,12.88
2023-08-26T21:40:05.129Z,12.85
2023-08-26T21:42:31.874Z,12.85
2023-08-26T21:44:58.653Z,12.83
2023-08-26T21:47:25.761Z,12.84
2023-08-26T21:49:52.586Z,12.85
2023-08-26T21:52:19.365Z,12.81
2023-08-26T21:54:46.288Z,12.74
2023-08-26T21:57:12.949Z,12.71
2023-08-26T21:59:39.829Z,12.70
2023-08-26T22:02:06.488Z,12.64
2023-08-26T22:04:33.498Z,12.61
2023-08-26T22:07:00.784Z,12.56
2023-08-26T22:09:27.977Z,12.52
2023-08-26T22:11:54.830Z,12.47
2023-08-26T22:14:22.028Z,12.42
2023-08-26T22:16:48.762Z,12.40
2023-08-26T22:19:17.007Z,12.40
2023-08-26T22:21:44.225Z,12.34
2023-08-26T22:24:11.063Z,12.33
2023-08-26T22:26:37.716Z,12.32
2023-08-26T22:29:05.146Z,12.29
2023-08-26T22:31:32.008Z,12.22
2023-08-26T22:33:58.693Z,12.16
2023-08-26T22:36:25.349Z,12.12
2023-08-26T22:38:51.966Z,12.11
2023-08-26T22:41:18.642Z,12.09
2023-08-26T22:43:48.122Z,12.03
2023-08-26T22:46:14.742Z,11.98
2023-08-26T22:48:41.359Z,11.98
2023-08-26T22:51:08.020Z,11.95
2023-08-26T22:53:34.932Z,11.92
2023-08-26T22:56:06.367Z,11.91
2023-08-26T22:58:33.465Z,11.88
2023-08-26T23:01:00.349Z,11.85
2023-08-26T23:03:27.009Z,11.79
2023-08-26T23:06:02.963Z,11.78
2023-08-26T23:08:29.986Z,11.74
2023-08-26T23:10:56.794Z,11.72
2023-08-26T23:13:23.709Z,11.68
2023-08-26T23:15:50.382Z,11.64
2023-08-26T23:18:17.002Z,11.58
2023-08-26T23:20:43.695Z,11.54
2023-08-26T23:23:10.393Z,11.51
2023-08-26T23:25:36.987Z,11.51
2023-08-26T23:28:05.678Z,11.51
2023-08-26T23:30:32.290Z,11.53
2023-08-26T23:32:59.291Z,11.51
2023-08-26T23:35:26.093Z,11.51
2023-08-26T23:37:52.689Z,11.53
2023-08-26T23:40:19.256Z,11.55
2023-08-26T23:42:45.969Z,11.55
2023-08-26T23:45:12.584Z,11.57
2023-08-26T23:47:39.220Z,11.54
2023-08-26T23:50:06.270Z,11.48
2023-08-26T23:52:32.961Z,11.48
2023-08-26T23:54:59.599Z,11.44
2023-08-26T23:57:26.788Z,11.41
2023-08-26T23:59:53.368Z,11.40
